Time;durP1;ratioP1;P1;durP2;ratioP2;P2;SDS_P1;SDS_P2;PMS_P1;PMS_P2;Temp;Humidity;BMP_temperature;BMP_pressure;BME280_temperature;BME280_humidity;BME280_pressure;Samples;Min_cycle;Max_cycle;Signal;HPM_P1;HPM_P2
2021/12/18 00:00:57;;;;;;;1.80;1.67;;;11.00;79.30;;;14.05;59.49;103869.44;4919192;29;20219;-49
2021/12/18 00:03:25;;;;;;;2.83;2.20;;;11.00;79.40;;;14.05;59.40;103874.75;4918281;29;20245;-50
2021/12/18 00:05:52;;;;;;;2.13;1.80;;;11.00;79.50;;;14.05;59.53;103869.44;4917799;29;20236;-48
2021/12/18 00:08:20;;;;;;;3.00;1.77;;;11.00;79.60;;;14.04;59.54;103865.97;4919917;29;20277;-50
2021/12/18 00:10:48;;;;;;;2.30;1.93;;;11.00;79.80;;;14.05;59.58;103872.94;4920023;29;20221;-50
2021/12/18 00:13:16;;;;;;;2.40;1.70;;;11.00;79.80;;;14.06;59.43;103871.16;4918472;29;20237;-48
2021/12/18 00:15:43;;;;;;;2.13;1.53;;;10.90;79.70;;;14.05;59.61;103864.16;4926879;29;20218;-49
2021/12/18 00:18:11;;;;;;;1.87;1.43;;;11.00;79.60;;;14.05;59.54;103872.09;4938081;29;20190;-48
2021/12/18 00:20:38;;;;;;;3.73;1.67;;;11.00;80.40;;;14.05;59.50;103872.09;4937919;29;20201;-50
2021/12/18 00:23:07;;;;;;;2.27;1.70;;;11.00;79.50;;;14.04;59.49;103868.63;4937398;29;20192;-49
2021/12/18 00:25:34;;;;;;;2.27;1.73;;;11.00;79.40;;;14.04;59.59;103865.13;4937324;29;20217;-49
2021/12/18 00:28:04;;;;;;;2.40;1.80;;;11.00;79.40;;;14.04;59.31;103867.78;4937628;29;20257;-48
2021/12/18 00:30:33;;;;;;;1.90;1.53;;;10.90;79.20;;;14.03;59.11;103863.44;4937689;29;20204;-50
2021/12/18 00:33:01;;;;;;;2.70;1.63;;;11.00;79.20;;;14.03;59.47;103866.06;4923393;29;20199;-49
2021/12/18 00:35:28;;;;;;;2.23;1.60;;;11.00;79.20;;;14.03;59.48;103866.06;4918080;29;20229;-49
2021/12/18 00:37:56;;;;;;;1.70;1.60;;;11.00;79.10;;;14.03;59.24;103855.47;4918756;29;20273;-48
2021/12/18 00:40:25;;;;;;;2.93;1.80;;;11.00;79.10;;;14.02;59.37;103859.13;4918840;29;20226;-49
2021/12/18 00:43:02;;;;;;;2.20;1.77;;;11.00;79.10;;;14.01;59.39;103862.72;4918900;29;20596;-50
2021/12/18 00:45:31;;;;;;;2.43;1.80;;;11.00;79.20;;;13.97;59.23;103850.69;4918242;29;20285;-49
2021/12/18 00:47:58;;;;;;;2.00;1.60;;;11.00;79.20;;;13.96;59.68;103860.44;4919892;29;20670;-49
2021/12/18 00:50:31;;;;;;;3.00;2.17;;;10.90;79.20;;;13.94;59.14;103850.91;4918639;29;20533;-49
2021/12/18 00:52:58;;;;;;;2.47;1.80;;;10.90;79.20;;;13.92;59.41;103848.41;4918439;29;20274;-49
2021/12/18 00:55:25;;;;;;;2.43;2.07;;;10.90;79.30;;;13.92;59.62;103850.19;4917589;29;20222;-49
2021/12/18 00:57:53;;;;;;;2.13;1.53;;;10.90;80.20;;;13.92;59.66;103858.13;4927255;29;20706;-49
2021/12/18 01:00:24;;;;;;;2.63;1.80;;;10.90;79.60;;;13.93;59.50;103862.50;4936700;29;20227;-48
2021/12/18 01:02:59;;;;;;;2.73;2.27;;;10.90;79.70;;;13.93;59.69;103854.53;4937315;29;20526;-49
2021/12/18 01:05:30;;;;;;;2.20;1.90;;;10.90;80.00;;;13.95;59.67;103855.25;4927197;29;20281;-49
2021/12/18 01:07:59;;;;;;;2.10;1.80;;;10.90;80.00;;;13.94;59.67;103857.06;4918227;29;20202;-49
2021/12/18 01:10:47;;;;;;;1.53;1.40;;;10.80;79.70;;;13.94;59.52;103856.22;4917829;29;20274;-49
2021/12/18 01:13:20;;;;;;;1.77;1.20;;;10.80;79.60;;;13.93;59.58;103854.53;4920045;29;20281;-49
2021/12/18 01:15:52;;;;;;;1.80;1.50;;;10.90;79.70;;;13.92;59.79;103858.13;4917866;29;20210;-48
2021/12/18 01:23:53;;;;;;;2.00;1.70;;;10.90;79.30;;;13.90;59.56;103857.41;4936836;29;20543;-48
2021/12/18 01:26:21;;;;;;;2.10;1.90;;;10.90;79.40;;;13.91;59.55;103856.44;4936440;29;20685;-49
2021/12/18 01:28:48;;;;;;;2.90;2.13;;;10.90;79.30;;;13.91;59.47;103857.28;4937090;29;20197;-49
2021/12/18 01:31:15;;;;;;;3.27;2.20;;;10.90;79.20;;;13.94;59.57;103850.91;4936904;29;20198;-50
2021/12/18 01:33:44;;;;;;;1.80;1.70;;;10.90;79.20;;;13.95;59.54;103857.91;4926437;29;20285;-49
2021/12/18 01:36:11;;;;;;;4.87;2.37;;;10.90;79.10;;;13.94;59.23;103850.91;4919323;29;20293;-49
2021/12/18 01:38:39;;;;;;;2.27;2.07;;;10.90;79.00;;;13.95;59.29;103847.31;4934043;29;20193;-49
2021/12/18 01:41:06;;;;;;;2.13;1.93;;;10.90;79.00;;;13.95;59.14;103847.31;4940796;29;20225;-48
2021/12/18 01:54:20;;;;;;;4.73;3.77;;;10.90;79.40;;;14.00;59.24;103834.56;4928716;29;20666;-51
2021/12/18 01:56:47;;;;;;;4.20;3.50;;;10.90;79.60;;;14.01;59.27;103837.06;4939321;29;20196;-49
2021/12/18 01:59:15;;;;;;;3.57;3.13;;;10.90;79.60;;;14.03;59.28;103839.59;4938795;29;20236;-49
2021/12/18 02:01:42;;;;;;;3.83;2.77;;;10.90;79.80;;;14.07;59.43;103838.41;4928228;29;20202;-49
2021/12/18 02:04:11;;;;;;;4.00;2.70;;;10.90;79.90;;;14.07;59.32;103841.06;4919700;29;20202;-49
2021/12/18 02:06:38;;;;;;;2.87;2.57;;;10.90;79.70;;;14.06;59.38;103842.00;4920026;29;20210;-49
2021/12/18 02:09:05;;;;;;;3.73;2.87;;;10.90;79.70;;;14.06;59.45;103844.66;4920142;29;20202;-49
2021/12/18 02:11:35;;;;;;;4.27;3.27;;;10.90;79.50;;;14.05;59.38;103842.97;4920809;29;20195;-49
2021/12/18 02:14:20;;;;;;;5.70;3.37;;;10.90;79.30;;;14.06;59.32;103839.38;4919615;29;20194;-52
2021/12/18 02:22:03;;;;;;;5.57;3.53;;;10.90;79.20;;;14.06;59.11;103836.72;4919282;29;20278;-50
2021/12/18 02:24:32;;;;;;;4.80;4.07;;;10.90;79.20;;;14.09;59.23;103833.84;4918424;29;20194;-52
2021/12/18 02:27:00;;;;;;;4.70;3.00;;;10.90;79.40;;;14.10;58.96;103824.91;4920372;29;20207;-49
2021/12/18 02:29:31;;;;;;;3.47;2.73;;;10.90;79.30;;;14.09;59.11;103828.53;4918664;29;20664;-49
2021/12/18 02:31:58;;;;;;;5.10;3.63;;;10.90;79.30;;;14.10;58.91;103833.69;4919443;29;20233;-50
2021/12/18 02:34:30;;;;;;;5.17;3.37;;;10.90;79.00;;;14.09;59.15;103828.53;4919154;29;20194;-50
2021/12/18 02:37:04;;;;;;;3.93;3.13;;;10.90;79.10;;;14.09;58.97;103825.88;4919705;29;20191;-52
2021/12/18 02:39:56;;;;;;;3.27;2.97;;;10.90;79.00;;;14.07;59.08;103820.69;4919474;29;20216;-49
2021/12/18 02:42:24;;;;;;;4.13;3.17;;;10.90;79.00;;;14.07;58.97;103820.69;4920577;29;20631;-49
2021/12/18 02:44:52;;;;;;;4.60;3.47;;;11.00;79.00;;;14.09;59.08;103820.59;4919102;29;20217;-50
2021/12/18 02:47:19;;;;;;;4.23;3.20;;;10.90;78.70;;;14.09;59.02;103818.78;4919325;29;20535;-50
2021/12/18 02:49:49;;;;;;;4.07;3.47;;;10.90;78.90;;;14.09;58.99;103823.25;4919457;29;20195;-49
2021/12/18 02:52:19;;;;;;;5.87;3.80;;;11.00;78.80;;;14.09;58.97;103815.28;4919834;29;20539;-49
2021/12/18 02:54:47;;;;;;;5.17;3.80;;;11.00;78.60;;;14.08;58.94;103811.78;4919279;29;20230;-50
2021/12/18 02:57:15;;;;;;;5.90;3.60;;;11.00;78.70;;;14.08;58.64;103816.25;4926707;29;20205;-49
2021/12/18 02:59:45;;;;;;;6.50;4.53;;;10.90;78.70;;;14.07;58.91;103809.28;4958215;29;20221;-50
2021/12/18 03:02:13;;;;;;;6.37;4.50;;;10.90;78.70;;;14.06;58.80;103812.88;4957374;28;20267;-49
2021/12/18 03:04:44;;;;;;;5.87;4.20;;;10.90;78.70;;;14.05;58.88;103814.69;4957066;28;20209;-50
2021/12/18 03:07:15;;;;;;;5.60;4.50;;;10.90;78.70;;;14.08;58.90;103813.59;4957765;29;20630;-49
2021/12/18 03:24:08;;;;;;;5.50;3.40;;;10.90;79.20;;;13.91;59.27;103791.09;4867390;29;20224;-60
2021/12/18 03:26:35;;;;;;;5.20;3.60;;;10.90;79.30;;;13.89;59.45;103792.16;4861711;29;20204;-62
2021/12/18 03:29:04;;;;;;;5.47;3.73;;;10.90;79.50;;;13.89;59.43;103794.81;4861692;29;20274;-61
2021/12/18 03:31:33;;;;;;;5.30;3.70;;;10.90;79.70;;;13.89;59.48;103793.03;4860258;29;20213;-59
2021/12/18 03:34:00;;;;;;;4.63;3.23;;;10.80;79.70;;;13.92;59.76;103789.28;4860169;29;20315;-62
2021/12/18 03:36:28;;;;;;;5.30;3.23;;;10.80;80.00;;;13.93;59.50;103791.00;4861848;29;20595;-61
2021/12/18 03:38:55;;;;;;;5.33;3.20;;;10.80;79.90;;;13.93;59.72;103797.09;4861446;29;20197;-60
2021/12/18 03:41:23;;;;;;;5.00;3.67;;;10.80;79.90;;;13.93;59.72;103785.69;4861312;29;20217;-63
2021/12/18 03:43:50;;;;;;;5.83;3.60;;;10.80;80.00;;;13.93;59.55;103791.00;4860329;29;20290;-61
2021/12/18 03:46:19;;;;;;;5.50;2.97;;;10.80;80.10;;;13.94;59.70;103793.50;4861151;29;20201;-62
2021/12/18 03:48:46;;;;;;;4.30;3.07;;;10.80;80.20;;;13.96;59.60;103796.03;4861125;29;20569;-61
2021/12/18 03:51:13;;;;;;;5.77;3.37;;;10.80;80.20;;;13.97;59.71;103792.41;4861348;29;20192;-61
2021/12/18 03:53:40;;;;;;;3.10;2.80;;;10.80;80.20;;;13.99;59.42;103790.50;4860528;29;20295;-61
2021/12/18 03:56:08;;;;;;;7.57;3.63;;;10.80;80.90;;;14.00;59.37;103793.00;4860868;29;20203;-62
2021/12/18 03:58:35;;;;;;;4.97;3.00;;;10.80;80.10;;;14.00;59.38;103797.47;4860485;29;20277;-62
2021/12/18 04:01:03;;;;;;;7.23;3.30;;;10.80;80.20;;;13.99;59.45;103798.44;4861011;29;20304;-61
2021/12/18 04:03:31;;;;;;;5.83;3.87;;;10.80;80.20;;;13.97;59.55;103792.41;4860027;29;20228;-60
2021/12/18 04:05:59;;;;;;;4.60;3.27;;;10.80;80.00;;;13.95;59.96;103789.06;4860436;29;20204;-62
2021/12/18 04:08:26;;;;;;;4.67;3.27;;;10.80;80.00;;;13.96;59.63;103796.03;4860986;29;20285;-63
2021/12/18 04:10:54;;;;;;;3.27;2.77;;;10.80;80.10;;;13.96;59.67;103790.72;4859676;29;20217;-60
2021/12/18 04:13:21;;;;;;;5.27;3.10;;;10.80;80.10;;;13.94;59.63;103795.31;4859871;29;20223;-64
2021/12/18 04:15:48;;;;;;;4.23;3.00;;;10.80;80.00;;;13.92;59.65;103806.03;4860592;29;20204;-62
2021/12/18 04:18:16;;;;;;;3.77;2.87;;;10.80;80.00;;;13.92;59.88;103802.53;4860607;29;20745;-61
2021/12/18 04:20:45;;;;;;;4.30;3.00;;;10.80;80.00;;;13.94;59.84;103795.31;4860103;29;20216;-63
2021/12/18 04:23:12;;;;;;;5.23;3.87;;;10.80;80.10;;;13.94;59.74;103792.66;4859396;29;20259;-62
2021/12/18 04:25:40;;;;;;;6.00;3.60;;;10.80;80.10;;;13.94;59.78;103792.66;4860337;29;20612;-61
2021/12/18 04:28:08;;;;;;;4.60;3.50;;;10.80;80.20;;;13.94;60.07;103795.31;4860553;29;20204;-61
2021/12/18 04:30:35;;;;;;;6.33;3.37;;;10.80;80.50;;;13.94;59.89;103792.66;4860645;29;20189;-61
2021/12/18 04:33:03;;;;;;;6.33;4.50;;;10.80;80.50;;;13.95;59.81;103789.06;4860235;29;20707;-62
2021/12/18 04:35:30;;;;;;;7.37;5.50;;;10.80;81.30;;;13.95;59.84;103781.13;4860522;29;20228;-60
2021/12/18 04:37:59;;;;;;;7.43;5.37;;;10.80;80.70;;;13.94;59.49;103790.84;4860833;29;20666;-61
2021/12/18 04:40:27;;;;;;;8.33;5.20;;;10.80;80.70;;;13.92;59.97;103786.66;4861016;29;20224;-64
2021/12/18 04:42:55;;;;;;;7.40;4.97;;;10.80;80.70;;;13.91;59.96;103787.59;4859496;29;20267;-62
2021/12/18 04:45:24;;;;;;;6.57;4.83;;;10.80;80.80;;;13.89;59.92;103778.94;4860121;29;20200;-62
2021/12/18 04:47:51;;;;;;;5.67;4.30;;;10.80;80.80;;;13.88;60.12;103793.16;4860226;29;20320;-62
2021/12/18 04:50:19;;;;;;;4.90;3.97;;;10.80;81.00;;;13.87;60.11;103784.38;4860535;29;20553;-60
2021/12/18 04:52:46;;;;;;;5.20;3.50;;;10.70;81.00;;;13.86;60.34;103781.84;4859262;29;20256;-62
2021/12/18 04:55:16;;;;;;;3.73;2.70;;;10.70;81.10;;;13.86;60.17;103779.19;4860040;29;20250;-63
2021/12/18 04:57:44;;;;;;;3.17;2.77;;;10.70;81.10;;;13.85;60.44;103773.06;4860752;29;20201;-60
2021/12/18 05:00:19;;;;;;;3.60;2.80;;;10.80;81.20;;;13.86;60.18;103773.91;4860352;29;20219;-61
2021/12/18 05:02:50;;;;;;;2.93;2.40;;;10.80;81.20;;;13.87;60.51;103778.22;4859370;29;20223;-61
2021/12/18 05:05:17;;;;;;;2.90;2.27;;;10.80;81.20;;;13.85;60.42;103770.41;4854931;29;20201;-62
2021/12/18 05:07:44;;;;;;;3.53;2.70;;;10.80;81.10;;;13.85;60.41;103772.19;4841649;29;20198;-62
2021/12/18 05:10:15;;;;;;;2.73;2.53;;;10.70;81.10;;;13.83;60.60;103764.41;4841882;29;20197;-62
2021/12/18 05:12:42;;;;;;;2.67;2.30;;;10.80;81.20;;;13.84;60.38;103760.75;4845508;29;20239;-59
2021/12/18 05:15:10;;;;;;;2.67;2.10;;;10.80;81.30;;;13.86;60.55;103758.00;4855975;29;20223;-61
2021/12/18 05:17:37;;;;;;;2.47;2.27;;;10.70;81.20;;;13.84;60.40;103749.31;4863371;29;20287;-63
2021/12/18 05:20:06;;;;;;;3.73;2.53;;;10.70;81.20;;;13.82;60.64;103751.25;4861679;29;20220;-61
2021/12/18 05:22:34;;;;;;;3.40;2.97;;;10.70;81.10;;;13.80;60.46;103758.47;4862698;29;20192;-62
2021/12/18 05:25:02;;;;;;;4.23;3.37;;;10.70;81.10;;;13.82;60.35;103759.19;4863270;29;20228;-64
2021/12/18 05:27:31;;;;;;;4.50;3.20;;;10.70;81.30;;;13.83;60.55;103758.25;4863545;29;20691;-62
2021/12/18 05:29:58;;;;;;;3.70;2.93;;;10.70;81.30;;;13.82;60.50;103751.25;4862136;29;20199;-62
2021/12/18 05:32:25;;;;;;;4.93;3.00;;;10.70;81.50;;;13.81;60.47;103761.00;4862419;29;20674;-61
2021/12/18 05:34:53;;;;;;;4.20;2.93;;;10.70;81.60;;;13.81;60.57;103762.81;4863057;29;20208;-62
2021/12/18 05:37:32;;;;;;;6.37;3.20;;;10.70;81.60;;;13.77;60.48;103762.22;4863620;29;20664;-64
2021/12/18 05:39:59;;;;;;;3.90;3.00;;;10.70;81.60;;;13.77;60.71;103754.28;4863521;29;20245;-62
2021/12/18 05:42:27;;;;;;;4.60;3.47;;;10.70;81.60;;;13.77;60.64;103753.41;4862711;29;20196;-62
2021/12/18 05:44:55;;;;;;;4.57;3.33;;;10.70;81.70;;;13.77;60.91;103750.78;4862679;29;20200;-61
2021/12/18 05:47:23;;;;;;;5.10;3.40;;;10.70;81.80;;;13.79;60.82;103748.84;4863102;29;20208;-61
2021/12/18 05:49:50;;;;;;;5.47;3.43;;;10.70;81.90;;;13.79;60.81;103751.50;4863291;29;20229;-62
2021/12/18 05:52:17;;;;;;;5.23;3.40;;;10.70;81.80;;;13.79;60.92;103748.84;4863045;29;20197;-63
2021/12/18 05:54:45;;;;;;;5.57;4.17;;;10.70;81.80;;;13.80;60.72;103745.25;4862473;29;20623;-62
2021/12/18 05:57:14;;;;;;;5.27;3.50;;;10.70;81.90;;;13.79;60.94;103748.84;4862880;29;20192;-61
2021/12/18 05:59:42;;;;;;;6.67;4.50;;;10.70;81.80;;;13.79;60.74;103747.03;4862955;29;20271;-62
2021/12/18 06:02:11;;;;;;;5.83;4.33;;;10.60;81.90;;;13.81;60.78;103754.88;4862710;29;20574;-62
2021/12/18 06:04:38;;;;;;;7.10;4.53;;;10.70;82.00;;;13.80;61.06;103747.91;4862011;29;20743;-64
2021/12/18 06:07:07;;;;;;;8.07;4.90;;;10.70;81.90;;;13.79;61.11;103746.19;4862955;29;20197;-62
2021/12/18 06:09:36;;;;;;;5.47;3.93;;;10.70;81.90;;;13.78;60.99;103749.81;4862757;29;20621;-61
2021/12/18 06:12:05;;;;;;;7.40;4.63;;;10.70;81.90;;;13.77;60.98;103743.69;4862681;29;20207;-61
2021/12/18 06:14:32;;;;;;;4.97;3.67;;;10.70;82.00;;;13.76;61.00;103749.97;4861154;29;20549;-62
2021/12/18 06:17:00;;;;;;;4.80;3.50;;;10.70;82.10;;;13.75;61.12;103755.34;4862941;29;20233;-61
2021/12/18 06:19:28;;;;;;;5.70;3.13;;;10.70;82.20;;;13.77;61.37;103753.41;4862610;29;20213;-64
2021/12/18 06:21:56;;;;;;;5.17;3.30;;;10.70;82.30;;;13.79;61.08;103746.19;4860656;29;20216;-61
2021/12/18 06:24:25;;;;;;;5.03;3.33;;;10.70;82.30;;;13.79;61.15;103746.19;4861433;29;20262;-61
2021/12/18 06:26:52;;;;;;;4.67;3.33;;;10.70;82.30;;;13.80;61.04;103745.25;4862323;29;20193;-63
2021/12/18 06:29:20;;;;;;;4.73;2.83;;;10.70;82.30;;;13.79;61.26;103741.75;4862332;29;20287;-62
2021/12/18 06:31:47;;;;;;;4.80;3.43;;;10.70;82.30;;;13.79;61.24;103735.59;4862410;29;20283;-61
2021/12/18 06:34:15;;;;;;;4.83;3.17;;;10.70;82.20;;;13.77;61.23;103735.75;4861507;29;20299;-62
2021/12/18 06:36:44;;;;;;;4.73;3.00;;;10.70;82.20;;;13.79;61.20;103740.91;4862580;29;20653;-62
2021/12/18 06:39:11;;;;;;;4.43;3.33;;;10.70;82.10;;;13.75;61.35;103739.47;4862178;29;20200;-63
2021/12/18 06:41:38;;;;;;;4.33;3.03;;;10.70;82.10;;;13.74;61.56;103740.44;4862218;29;20652;-61
2021/12/18 06:44:06;;;;;;;3.70;2.90;;;10.70;82.20;;;13.74;61.52;103737.81;4861495;29;20295;-61
2021/12/18 06:46:33;;;;;;;4.27;3.20;;;10.70;82.30;;;13.75;61.39;103744.75;4862471;29;20212;-62
2021/12/18 06:49:01;;;;;;;4.30;3.00;;;10.70;82.40;;;13.74;61.38;103740.44;4862390;29;20208;-63
2021/12/18 06:51:29;;;;;;;3.43;2.80;;;10.70;82.30;;;13.73;61.28;103746.69;4862025;29;20192;-61
2021/12/18 06:53:57;;;;;;;4.83;3.60;;;10.70;82.30;;;13.73;61.43;103754.63;4861634;29;20216;-60
2021/12/18 06:56:25;;;;;;;4.00;3.47;;;10.70;82.40;;;13.73;61.50;103749.34;4860536;29;20208;-63
2021/12/18 06:58:53;;;;;;;4.63;3.17;;;10.70;82.50;;;13.73;61.37;103754.63;4862063;29;20275;-62
2021/12/18 07:01:20;;;;;;;4.83;3.50;;;10.70;82.50;;;13.74;61.44;103751.84;4862206;29;20227;-62
2021/12/18 07:03:48;;;;;;;5.83;3.80;;;10.70;82.60;;;13.75;61.42;103744.75;4860614;29;20216;-62
2021/12/18 07:06:15;;;;;;;8.03;3.73;;;10.70;82.60;;;13.77;61.45;103748.97;4861637;29;20207;-62
2021/12/18 07:08:42;;;;;;;5.27;3.90;;;10.60;82.60;;;13.79;61.48;103746.19;4861715;29;20200;-62
2021/12/18 07:11:11;;;;;;;4.17;2.93;;;10.70;82.80;;;13.81;61.30;103754.88;4859621;29;20560;-61
2021/12/18 07:13:38;;;;;;;5.43;3.03;;;10.70;82.60;;;13.82;61.25;103743.31;4860842;29;20712;-61
2021/12/18 07:16:06;;;;;;;4.27;3.00;;;10.70;82.70;;;13.82;61.42;103745.97;4861466;29;20207;-64
2021/12/18 07:18:33;;;;;;;4.57;3.80;;;10.70;82.70;;;13.81;61.53;103744.28;4861561;29;20736;-60
2021/12/18 07:21:01;;;;;;;5.27;3.47;;;10.70;82.60;;;13.80;61.46;103742.59;4861254;29;20221;-64
2021/12/18 07:23:28;;;;;;;5.93;4.17;;;10.70;82.50;;;13.82;61.46;103745.97;4861089;29;20704;-62
2021/12/18 07:25:55;;;;;;;8.80;5.03;;;10.70;82.60;;;13.83;61.37;103750.31;4861848;29;20202;-64
2021/12/18 07:28:24;;;;;;;6.13;4.50;;;10.70;82.80;;;13.83;61.38;103745.00;4861483;29;20196;-62
2021/12/18 07:30:51;;;;;;;6.03;4.60;;;10.70;82.80;;;13.83;61.62;103743.22;4861093;29;20196;-62
2021/12/18 07:33:19;;;;;;;5.53;4.10;;;10.70;82.80;;;13.83;61.42;103737.91;4859655;29;20296;-63
2021/12/18 07:35:46;;;;;;;7.17;4.90;;;10.70;82.80;;;13.87;61.66;103751.75;4860837;29;20200;-64
2021/12/18 07:38:14;;;;;;;7.97;5.10;;;10.70;82.80;;;13.89;61.38;103745.34;4860815;29;20665;-62
2021/12/18 07:40:42;;;;;;;7.30;4.77;;;10.80;82.80;;;13.91;61.52;103745.22;4861420;29;20565;-62
2021/12/18 07:43:09;;;;;;;7.30;5.00;;;10.80;82.80;;;13.94;61.46;103737.03;4860815;29;20637;-60
2021/12/18 07:45:38;;;;;;;6.07;4.17;;;10.80;82.90;;;13.95;61.30;103747.50;4861012;29;20255;-64
2021/12/18 07:48:06;;;;;;;5.90;4.53;;;10.80;82.80;;;13.97;61.24;103752.69;4861910;29;20211;-61
2021/12/18 07:50:33;;;;;;;6.50;5.10;;;10.80;82.60;;;13.99;61.25;103754.25;4861921;29;20212;-62
2021/12/18 07:53:01;;;;;;;7.87;5.50;;;10.80;82.50;;;14.00;61.52;103755.94;4861295;29;20250;-61
2021/12/18 07:55:29;;;;;;;7.70;5.40;;;10.80;82.60;;;14.04;61.30;103753.88;4862387;29;20233;-61
2021/12/18 07:57:56;;;;;;;7.07;5.70;;;10.80;82.60;;;14.05;61.28;103758.22;4863095;29;20193;-61
2021/12/18 08:00:24;;;;;;;8.53;5.67;;;10.80;82.60;;;14.05;61.37;103747.59;4862544;29;20271;-62
2021/12/18 08:02:53;;;;;;;8.53;5.57;;;10.90;82.80;;;14.07;61.37;103756.31;4862959;29;20256;-62
2021/12/18 08:05:21;;;;;;;9.30;5.70;;;10.90;82.50;;;14.07;61.10;103751.81;4864027;29;20625;-62
2021/12/18 08:07:48;;;;;;;6.53;4.63;;;10.90;82.60;;;14.09;61.16;103760.50;4860814;29;20223;-62
2021/12/18 08:10:16;;;;;;;5.27;4.20;;;10.90;82.60;;;14.11;61.06;103752.44;4860917;29;20272;-62
2021/12/18 08:12:44;;;;;;;10.57;5.03;;;10.90;82.60;;;14.12;61.29;103748.84;4859712;29;20678;-61
2021/12/18 08:15:11;;;;;;;7.30;4.97;;;11.00;82.60;;;14.13;61.16;103754.00;4859948;29;20249;-62
2021/12/18 08:17:39;;;;;;;6.93;5.20;;;11.00;82.50;;;14.14;61.12;103752.19;4859322;29;20213;-61
2021/12/18 08:20:10;;;;;;;9.63;6.10;;;10.90;82.20;;;14.15;61.18;103749.41;4860107;29;20714;-62
2021/12/18 08:22:37;;;;;;;7.83;5.40;;;11.00;82.40;;;14.16;61.10;103752.91;4859523;29;20221;-61
2021/12/18 08:25:06;;;;;;;7.80;5.13;;;11.00;82.30;;;14.16;60.99;103750.25;4859925;29;20264;-63
2021/12/18 08:27:34;;;;;;;9.73;6.23;;;11.00;82.50;;;14.16;61.21;103750.25;4860355;29;20243;-61
2021/12/18 08:30:03;;;;;;;9.80;5.77;;;11.00;82.50;;;14.17;60.87;103751.94;4860041;29;20204;-63
2021/12/18 08:32:30;;;;;;;8.87;5.93;;;11.00;82.50;;;14.19;61.05;103747.38;4859158;29;20569;-61
2021/12/18 08:34:58;;;;;;;10.33;5.73;;;11.00;82.50;;;14.19;60.75;103742.88;4859766;29;20204;-61
2021/12/18 08:37:26;;;;;;;10.30;6.23;;;11.00;82.50;;;14.21;61.09;103742.78;4860183;29;20699;-63
2021/12/18 08:39:54;;;;;;;9.57;6.43;;;11.00;82.40;;;14.21;61.01;103743.59;4859429;29;20193;-61
2021/12/18 08:42:21;;;;;;;8.97;5.57;;;11.00;82.60;;;14.21;60.92;103753.38;4859668;29;20307;-60
2021/12/18 08:44:49;;;;;;;7.67;5.70;;;11.00;82.50;;;14.24;61.16;103755.75;4859970;29;20203;-64
2021/12/18 08:47:17;;;;;;;10.30;5.80;;;11.10;82.80;;;14.23;60.71;103752.28;4859528;29;20245;-63
2021/12/18 08:49:44;;;;;;;8.97;5.77;;;11.10;82.40;;;14.22;61.25;103752.41;4860408;29;20197;-62
2021/12/18 08:52:12;;;;;;;7.60;5.37;;;11.10;82.40;;;14.24;61.12;103750.47;4859961;29;20196;-60
2021/12/18 08:54:40;;;;;;;6.47;4.47;;;11.10;82.40;;;14.25;61.08;103746.84;4859373;29;20309;-61
2021/12/18 08:57:09;;;;;;;9.07;4.90;;;11.10;82.30;;;14.27;61.28;103751.06;4860532;29;20275;-64
2021/12/18 08:59:37;;;;;;;8.33;5.30;;;11.10;82.40;;;14.29;61.02;103750.94;4860138;29;20196;-61
2021/12/18 09:02:05;;;;;;;6.43;4.47;;;11.20;82.30;;;14.31;60.86;103756.97;4859671;29;20251;-63
2021/12/18 09:04:33;;;;;;;6.57;4.97;;;11.10;82.10;;;14.34;61.00;103754.09;4859053;29;20295;-63
2021/12/18 09:07:02;;;;;;;6.63;5.27;;;11.20;83.00;;;14.34;61.02;103748.78;4860282;29;20197;-60
2021/12/18 09:09:29;;;;;;;9.13;6.37;;;11.20;82.40;;;14.38;60.69;103749.41;4859505;29;20196;-62
2021/12/18 09:11:58;;;;;;;8.17;6.40;;;11.20;82.60;;;14.42;60.87;103753.47;4859844;29;20199;-64
2021/12/18 09:14:25;;;;;;;9.83;6.53;;;11.20;82.60;;;14.43;60.95;103748.03;4859197;29;20232;-63
2021/12/18 09:16:53;;;;;;;8.80;5.67;;;11.20;82.60;;;14.44;60.65;103749.72;4859167;29;20201;-62
2021/12/18 09:19:21;;;;;;;9.77;6.57;;;11.30;82.40;;;14.44;61.01;103748.88;4859242;29;20672;-62
2021/12/18 09:21:48;;;;;;;12.97;9.40;;;11.30;82.10;;;14.46;61.13;103747.78;4859334;29;20224;-61
2021/12/18 09:24:15;;;;;;;10.53;7.60;;;11.30;82.60;;;14.50;61.06;103738.63;4857804;29;20223;-63
2021/12/18 09:26:43;;;;;;;12.10;10.20;;;11.30;82.40;;;14.54;61.10;103740.06;4859280;29;20204;-62
2021/12/18 09:29:12;;;;;;;7.83;6.80;;;11.30;82.40;;;14.59;60.85;103740.53;4859640;29;20259;-61
2021/12/18 09:31:39;;;;;;;8.23;6.63;;;11.40;82.50;;;14.64;60.99;103734.84;4859360;29;20261;-62
2021/12/18 09:34:07;;;;;;;7.20;6.10;;;11.40;82.30;;;14.67;61.26;103732.75;4858886;29;20221;-62
2021/12/18 09:36:34;;;;;;;9.00;6.43;;;11.40;82.30;;;14.73;60.58;103732.28;4858440;29;20239;-62
2021/12/18 09:39:02;;;;;;;10.10;6.53;;;11.40;82.30;;;14.77;60.67;103727.53;4859337;29;20260;-61
2021/12/18 09:41:31;;;;;;;6.57;5.87;;;11.50;82.50;;;14.82;60.52;103728.84;4859358;29;20217;-63
2021/12/18 09:43:58;;;;;;;5.30;4.37;;;11.50;82.40;;;14.83;60.47;103725.19;4857169;29;20666;-66
2021/12/18 09:46:31;;;;;;;5.80;4.23;;;11.50;82.20;;;14.85;60.32;103723.28;4859689;29;20196;-63
2021/12/18 09:49:00;;;;;;;5.17;3.87;;;11.60;82.10;;;14.84;60.69;103716.28;4860014;29;20192;-63
2021/12/18 09:51:27;;;;;;;5.00;3.80;;;11.60;81.70;;;14.84;60.72;103715.44;4859097;29;20251;-61
2021/12/18 09:53:57;;;;;;;5.73;3.53;;;11.60;81.60;;;14.86;60.32;103713.50;4858409;29;20740;-62
2021/12/18 09:56:26;;;;;;;4.80;3.47;;;11.70;81.80;;;14.87;60.38;103704.59;4859492;29;20260;-61
2021/12/18 09:58:54;;;;;;;2.93;2.57;;;11.70;81.90;;;14.91;60.22;103714.81;4862312;29;20223;-60
2021/12/18 10:01:21;;;;;;;2.73;2.20;;;11.70;81.80;;;14.96;60.30;103705.59;4862501;29;20248;-61
2021/12/18 10:03:53;;;;;;;2.57;2.00;;;11.80;81.50;;;15.01;60.40;103711.38;4861778;29;20220;-61
2021/12/18 10:06:41;;;;;;;3.53;3.13;;;11.80;80.80;;;15.08;60.03;103702.75;4862842;29;20672;-62
2021/12/18 10:09:12;;;;;;;2.50;2.07;;;11.90;81.20;;;15.20;60.06;103701.72;4861812;29;20197;-62
2021/12/18 10:11:49;;;;;;;3.57;2.47;;;11.90;81.20;;;15.27;59.50;103691.41;4862317;29;20200;-60
2021/12/18 10:14:20;;;;;;;3.20;2.00;;;12.00;80.40;;;15.32;59.46;103694.50;4861736;29;20307;-63
2021/12/18 10:16:50;;;;;;;1.87;1.70;;;12.10;80.30;;;15.36;59.50;103694.09;4862154;29;20205;-62
2021/12/18 10:19:29;;;;;;;2.03;1.23;;;12.10;80.00;;;15.40;58.83;103692.84;4862380;29;20561;-61
2021/12/18 10:22:01;;;;;;;2.10;1.40;;;12.20;79.50;;;15.41;58.73;103693.69;4862159;29;20232;-60
2021/12/18 10:24:31;;;;;;;2.57;1.63;;;12.20;79.50;;;15.40;59.04;103702.66;4861483;29;20223;-62
2021/12/18 10:27:00;;;;;;;1.83;1.60;;;12.20;79.30;;;15.41;59.01;103697.22;4862350;29;20204;-61
2021/12/18 10:29:34;;;;;;;1.80;1.70;;;12.20;79.30;;;15.40;58.61;103694.69;4861127;29;20211;-63
2021/12/18 10:32:09;;;;;;;2.20;1.90;;;12.20;79.10;;;15.37;58.70;103697.59;4861811;29;20270;-64
2021/12/18 10:34:41;;;;;;;2.47;1.93;;;12.20;78.90;;;15.36;58.39;103698.56;4860248;29;20668;-60
2021/12/18 10:37:16;;;;;;;3.63;1.77;;;12.20;79.20;;;15.34;58.75;103703.16;4843409;29;20201;-61
2021/12/18 10:39:57;;;;;;;3.30;1.93;;;12.20;79.00;;;15.30;58.57;103696.47;4843428;29;20197;-61
2021/12/18 10:42:28;;;;;;;1.60;1.33;;;12.20;79.10;;;15.31;58.90;103692.81;4858823;29;20236;-62
2021/12/18 10:45:06;;;;;;;1.70;1.60;;;12.20;79.30;;;15.28;58.65;103698.41;4861801;29;20200;-63
2021/12/18 10:48:02;;;;;;;1.40;1.23;;;12.20;79.30;;;15.24;58.99;103687.19;4860654;29;20283;-60
2021/12/18 10:50:38;;;;;;;1.67;1.50;;;12.20;79.60;;;15.24;58.91;103687.19;4861756;29;20213;-63
2021/12/18 10:53:10;;;;;;;1.70;1.60;;;12.20;79.70;;;15.24;58.92;103687.19;4859654;29;20213;-61
2021/12/18 10:55:44;;;;;;;2.57;1.57;;;12.20;79.60;;;15.24;58.88;103689.00;4861224;29;20205;-61